sensor_id;sensor_type;location;lat;lon;timestamp;temperature;humidity
25128;DHT22;13107;51.304;6.866;2024-03-02T00:03:23;7.70;99.90
25128;DHT22;13107;51.304;6.866;2024-03-02T00:07:26;7.70;99.90
25128;DHT22;13107;51.304;6.866;2024-03-02T00:11:28;7.70;99.90
25128;DHT22;13107;51.304;6.866;2024-03-02T00:15:38;7.70;99.90
25128;DHT22;13107;51.304;6.866;2024-03-02T00:19:41;7.70;99.90
25128;DHT22;13107;51.304;6.866;2024-03-02T00:23:43;7.70;99.90
25128;DHT22;13107;51.304;6.866;2024-03-02T00:27:48;7.90;99.90
25128;DHT22;13107;51.304;6.866;2024-03-02T00:31:52;7.90;99.90
25128;DHT22;13107;51.304;6.866;2024-03-02T00:35:55;7.90;99.90
25128;DHT22;13107;51.304;6.866;2024-03-02T00:39:57;7.90;99.90
25128;DHT22;13107;51.304;6.866;2024-03-02T00:44:03;7.90;99.90
25128;DHT22;13107;51.304;6.866;2024-03-02T00:48:06;8.00;99.90
25128;DHT22;13107;51.304;6.866;2024-03-02T00:52:08;8.00;99.90
25128;DHT22;13107;51.304;6.866;2024-03-02T00:56:11;8.00;99.90
25128;DHT22;13107;51.304;6.866;2024-03-02T01:00:16;8.10;99.90
25128;DHT22;13107;51.304;6.866;2024-03-02T01:04:19;8.20;99.90
25128;DHT22;13107;51.304;6.866;2024-03-02T01:08:21;8.20;99.90
25128;DHT22;13107;51.304;6.866;2024-03-02T01:12:23;8.20;99.90
25128;DHT22;13107;51.304;6.866;2024-03-02T01:16:25;8.20;99.90
25128;DHT22;13107;51.304;6.866;2024-03-02T01:20:27;8.10;99.90
25128;DHT22;13107;51.304;6.866;2024-03-02T01:24:29;8.10;99.90
25128;DHT22;13107;51.304;6.866;2024-03-02T01:28:30;8.20;99.90
25128;DHT22;13107;51.304;6.866;2024-03-02T01:32:32;8.10;99.90
25128;DHT22;13107;51.304;6.866;2024-03-02T01:36:34;8.00;99.90
25128;DHT22;13107;51.304;6.866;2024-03-02T01:40:37;8.00;99.90
25128;DHT22;13107;51.304;6.866;2024-03-02T01:44:40;7.90;99.90
25128;DHT22;13107;51.304;6.866;2024-03-02T01:48:42;7.80;99.90
25128;DHT22;13107;51.304;6.866;2024-03-02T01:52:44;7.80;99.90
25128;DHT22;13107;51.304;6.866;2024-03-02T01:56:46;7.80;99.90
25128;DHT22;13107;51.304;6.866;2024-03-02T02:00:47;7.70;99.90
25128;DHT22;13107;51.304;6.866;2024-03-02T02:04:49;7.70;99.90
25128;DHT22;13107;51.304;6.866;2024-03-02T02:08:51;7.70;99.90
25128;DHT22;13107;51.304;6.866;2024-03-02T02:12:53;7.80;99.90
25128;DHT22;13107;51.304;6.866;2024-03-02T02:16:55;7.80;99.90
25128;DHT22;13107;51.304;6.866;2024-03-02T02:20:57;7.80;99.90
25128;DHT22;13107;51.304;6.866;2024-03-02T02:24:59;7.90;99.90
25128;DHT22;13107;51.304;6.866;2024-03-02T02:29:00;7.90;99.90
25128;DHT22;13107;51.304;6.866;2024-03-02T02:33:02;8.00;99.90
25128;DHT22;13107;51.304;6.866;2024-03-02T02:37:05;8.20;99.90
25128;DHT22;13107;51.304;6.866;2024-03-02T02:41:07;8.20;99.90
25128;DHT22;13107;51.304;6.866;2024-03-02T02:45:09;8.20;99.90
25128;DHT22;13107;51.304;6.866;2024-03-02T02:49:12;8.30;99.90
25128;DHT22;13107;51.304;6.866;2024-03-02T02:53:14;8.40;99.90
25128;DHT22;13107;51.304;6.866;2024-03-02T02:57:16;8.40;99.90
25128;DHT22;13107;51.304;6.866;2024-03-02T03:01:18;8.40;99.90
25128;DHT22;13107;51.304;6.866;2024-03-02T03:05:20;8.50;99.90
25128;DHT22;13107;51.304;6.866;2024-03-02T03:09:22;8.50;99.90
25128;DHT22;13107;51.304;6.866;2024-03-02T03:13:24;8.50;99.90
25128;DHT22;13107;51.304;6.866;2024-03-02T03:17:26;8.50;99.90
25128;DHT22;13107;51.304;6.866;2024-03-02T03:21:31;8.50;99.90
25128;DHT22;13107;51.304;6.866;2024-03-02T03:25:33;8.50;99.90
25128;DHT22;13107;51.304;6.866;2024-03-02T03:29:36;8.50;99.90
25128;DHT22;13107;51.304;6.866;2024-03-02T03:33:38;8.50;99.90
25128;DHT22;13107;51.304;6.866;2024-03-02T03:37:40;8.60;99.90
25128;DHT22;13107;51.304;6.866;2024-03-02T03:41:42;8.60;99.90
25128;DHT22;13107;51.304;6.866;2024-03-02T03:45:44;8.60;99.90
25128;DHT22;13107;51.304;6.866;2024-03-02T03:49:46;8.60;99.90
25128;DHT22;13107;51.304;6.866;2024-03-02T03:53:48;8.60;99.90
25128;DHT22;13107;51.304;6.866;2024-03-02T03:57:49;8.60;99.90
25128;DHT22;13107;51.304;6.866;2024-03-02T04:01:51;8.60;99.90
25128;DHT22;13107;51.304;6.866;2024-03-02T04:05:54;8.50;99.90
25128;DHT22;13107;51.304;6.866;2024-03-02T04:09:56;8.40;99.90
25128;DHT22;13107;51.304;6.866;2024-03-02T04:13:58;8.30;99.90
25128;DHT22;13107;51.304;6.866;2024-03-02T04:18:00;8.10;99.90
25128;DHT22;13107;51.304;6.866;2024-03-02T04:22:02;8.00;99.90
25128;DHT22;13107;51.304;6.866;2024-03-02T04:26:16;8.00;99.90
25128;DHT22;13107;51.304;6.866;2024-03-02T04:30:21;7.90;99.90
25128;DHT22;13107;51.304;6.866;2024-03-02T04:34:23;7.80;99.90
25128;DHT22;13107;51.304;6.866;2024-03-02T04:38:25;7.70;99.90
25128;DHT22;13107;51.304;6.866;2024-03-02T04:42:27;7.60;99.90
25128;DHT22;13107;51.304;6.866;2024-03-02T04:46:28;7.50;99.90
25128;DHT22;13107;51.304;6.866;2024-03-02T04:50:30;7.40;99.90
25128;DHT22;13107;51.304;6.866;2024-03-02T04:54:32;7.30;99.90
25128;DHT22;13107;51.304;6.866;2024-03-02T04:58:34;7.30;99.90
25128;DHT22;13107;51.304;6.866;2024-03-02T05:02:36;7.30;99.90
25128;DHT22;13107;51.304;6.866;2024-03-02T05:06:38;7.20;99.90
25128;DHT22;13107;51.304;6.866;2024-03-02T05:10:43;7.20;99.90
25128;DHT22;13107;51.304;6.866;2024-03-02T05:14:46;7.10;99.90
25128;DHT22;13107;51.304;6.866;2024-03-02T05:18:47;7.10;99.90
25128;DHT22;13107;51.304;6.866;2024-03-02T05:22:49;7.10;99.90
25128;DHT22;13107;51.304;6.866;2024-03-02T05:26:51;7.00;99.90
25128;DHT22;13107;51.304;6.866;2024-03-02T05:30:53;7.00;99.90
25128;DHT22;13107;51.304;6.866;2024-03-02T05:34:55;7.00;99.90
25128;DHT22;13107;51.304;6.866;2024-03-02T05:38:57;7.00;99.90
25128;DHT22;13107;51.304;6.866;2024-03-02T05:42:59;7.00;99.90
25128;DHT22;13107;51.304;6.866;2024-03-02T05:47:01;6.90;99.90
25128;DHT22;13107;51.304;6.866;2024-03-02T05:51:03;6.90;99.90
25128;DHT22;13107;51.304;6.866;2024-03-02T05:55:05;6.90;99.90
25128;DHT22;13107;51.304;6.866;2024-03-02T05:59:07;6.80;99.90
25128;DHT22;13107;51.304;6.866;2024-03-02T06:03:15;6.80;99.90
25128;DHT22;13107;51.304;6.866;2024-03-02T06:07:16;6.60;99.90
25128;DHT22;13107;51.304;6.866;2024-03-02T06:11:21;6.60;99.90
25128;DHT22;13107;51.304;6.866;2024-03-02T06:15:23;6.60;99.90
25128;DHT22;13107;51.304;6.866;2024-03-02T06:19:25;6.50;99.90
25128;DHT22;13107;51.304;6.866;2024-03-02T06:23:27;6.40;99.90
25128;DHT22;13107;51.304;6.866;2024-03-02T06:27:29;6.50;99.90
25128;DHT22;13107;51.304;6.866;2024-03-02T06:31:31;6.50;99.90
25128;DHT22;13107;51.304;6.866;2024-03-02T06:35:33;6.70;99.90
25128;DHT22;13107;51.304;6.866;2024-03-02T06:39:34;6.70;99.90
25128;DHT22;13107;51.304;6.866;2024-03-02T06:43:38;6.80;99.90
25128;DHT22;13107;51.304;6.866;2024-03-02T06:47:40;6.80;99.90
25128;DHT22;13107;51.304;6.866;2024-03-02T06:51:42;6.90;99.90
25128;DHT22;13107;51.304;6.866;2024-03-02T06:55:52;6.90;99.90
25128;DHT22;13107;51.304;6.866;2024-03-02T06:59:53;6.90;99.90
25128;DHT22;13107;51.304;6.866;2024-03-02T07:04:00;6.90;99.90
25128;DHT22;13107;51.304;6.866;2024-03-02T07:08:01;7.10;99.90
25128;DHT22;13107;51.304;6.866;2024-03-02T07:12:04;7.20;99.90
25128;DHT22;13107;51.304;6.866;2024-03-02T07:16:06;7.30;99.90
25128;DHT22;13107;51.304;6.866;2024-03-02T07:20:28;7.40;99.90
25128;DHT22;13107;51.304;6.866;2024-03-02T07:24:29;7.60;99.90
25128;DHT22;13107;51.304;6.866;2024-03-02T07:28:31;7.70;99.90
25128;DHT22;13107;51.304;6.866;2024-03-02T07:32:33;7.90;99.90
25128;DHT22;13107;51.304;6.866;2024-03-02T07:36:35;8.00;99.90
25128;DHT22;13107;51.304;6.866;2024-03-02T07:40:38;8.10;99.90
25128;DHT22;13107;51.304;6.866;2024-03-02T07:44:40;8.00;99.90
25128;DHT22;13107;51.304;6.866;2024-03-02T07:48:42;8.00;99.90
25128;DHT22;13107;51.304;6.866;2024-03-02T07:52:44;8.20;99.90
25128;DHT22;13107;51.304;6.866;2024-03-02T07:56:47;8.30;99.90
25128;DHT22;13107;51.304;6.866;2024-03-02T08:00:49;8.50;99.90
25128;DHT22;13107;51.304;6.866;2024-03-02T08:04:54;8.70;99.90
25128;DHT22;13107;51.304;6.866;2024-03-02T08:08:57;9.00;99.90
25128;DHT22;13107;51.304;6.866;2024-03-02T08:12:59;9.10;99.90
25128;DHT22;13107;51.304;6.866;2024-03-02T08:17:01;9.20;99.90
25128;DHT22;13107;51.304;6.866;2024-03-02T08:21:03;9.20;99.90
25128;DHT22;13107;51.304;6.866;2024-03-02T08:25:05;9.20;99.90
25128;DHT22;13107;51.304;6.866;2024-03-02T08:29:07;9.30;99.90
25128;DHT22;13107;51.304;6.866;2024-03-02T08:33:09;9.50;99.90
25128;DHT22;13107;51.304;6.866;2024-03-02T08:37:11;9.50;99.90
25128;DHT22;13107;51.304;6.866;2024-03-02T08:41:13;9.70;99.90
25128;DHT22;13107;51.304;6.866;2024-03-02T08:45:15;9.70;99.90
25128;DHT22;13107;51.304;6.866;2024-03-02T08:49:18;9.60;99.90
25128;DHT22;13107;51.304;6.866;2024-03-02T08:53:19;9.60;99.90
25128;DHT22;13107;51.304;6.866;2024-03-02T08:57:21;9.50;99.90
25128;DHT22;13107;51.304;6.866;2024-03-02T09:01:23;9.50;99.90
25128;DHT22;13107;51.304;6.866;2024-03-02T09:05:25;9.60;99.90
25128;DHT22;13107;51.304;6.866;2024-03-02T09:09:27;9.60;99.90
25128;DHT22;13107;51.304;6.866;2024-03-02T09:13:29;9.90;99.90
25128;DHT22;13107;51.304;6.866;2024-03-02T09:17:31;10.90;99.90
25128;DHT22;13107;51.304;6.866;2024-03-02T09:21:33;11.70;99.90
25128;DHT22;13107;51.304;6.866;2024-03-02T09:25:35;12.10;99.90
25128;DHT22;13107;51.304;6.866;2024-03-02T09:29:36;12.50;99.90
25128;DHT22;13107;51.304;6.866;2024-03-02T09:33:38;12.40;99.90
25128;DHT22;13107;51.304;6.866;2024-03-02T09:37:43;12.60;99.90
25128;DHT22;13107;51.304;6.866;2024-03-02T09:41:45;13.60;99.90
25128;DHT22;13107;51.304;6.866;2024-03-02T09:45:46;13.70;99.90
25128;DHT22;13107;51.304;6.866;2024-03-02T09:49:49;14.10;99.90
25128;DHT22;13107;51.304;6.866;2024-03-02T09:53:51;14.20;99.90
25128;DHT22;13107;51.304;6.866;2024-03-02T09:57:57;14.80;99.90
25128;DHT22;13107;51.304;6.866;2024-03-02T10:02:00;15.50;99.90
25128;DHT22;13107;51.304;6.866;2024-03-02T10:10:23;16.80;99.90
25128;DHT22;13107;51.304;6.866;2024-03-02T10:14:25;16.40;99.80
25128;DHT22;13107;51.304;6.866;2024-03-02T10:18:27;16.80;99.90
25128;DHT22;13107;51.304;6.866;2024-03-02T10:22:33;17.90;99.50
25128;DHT22;13107;51.304;6.866;2024-03-02T10:26:34;18.40;95.90
25128;DHT22;13107;51.304;6.866;2024-03-02T10:30:36;17.90;95.40
25128;DHT22;13107;51.304;6.866;2024-03-02T10:34:42;17.80;95.30
25128;DHT22;13107;51.304;6.866;2024-03-02T10:38:45;16.30;97.30
25128;DHT22;13107;51.304;6.866;2024-03-02T10:42:50;15.40;99.90
25128;DHT22;13107;51.304;6.866;2024-03-02T10:46:53;14.60;99.90
25128;DHT22;13107;51.304;6.866;2024-03-02T10:50:57;13.70;99.90
25128;DHT22;13107;51.304;6.866;2024-03-02T10:55:03;13.50;99.90
25128;DHT22;13107;51.304;6.866;2024-03-02T10:59:37;13.00;99.90
25128;DHT22;13107;51.304;6.866;2024-03-02T11:03:55;13.10;99.90
25128;DHT22;13107;51.304;6.866;2024-03-02T11:08:02;12.80;99.90
25128;DHT22;13107;51.304;6.866;2024-03-02T11:12:23;12.80;99.90
25128;DHT22;13107;51.304;6.866;2024-03-02T11:16:34;12.60;99.90
25128;DHT22;13107;51.304;6.866;2024-03-02T11:20:38;12.60;99.90
25128;DHT22;13107;51.304;6.866;2024-03-02T11:24:48;12.50;99.90
25128;DHT22;13107;51.304;6.866;2024-03-02T11:28:51;12.70;99.90
25128;DHT22;13107;51.304;6.866;2024-03-02T11:32:56;12.60;99.90
25128;DHT22;13107;51.304;6.866;2024-03-02T11:36:58;12.70;99.90
25128;DHT22;13107;51.304;6.866;2024-03-02T11:41:07;12.70;99.90
25128;DHT22;13107;51.304;6.866;2024-03-02T11:45:10;12.80;99.90
25128;DHT22;13107;51.304;6.866;2024-03-02T11:49:15;12.80;99.90
25128;DHT22;13107;51.304;6.866;2024-03-02T11:53:22;12.70;99.90
25128;DHT22;13107;51.304;6.866;2024-03-02T11:57:24;12.70;99.90
25128;DHT22;13107;51.304;6.866;2024-03-02T12:01:27;12.90;99.90
25128;DHT22;13107;51.304;6.866;2024-03-02T12:05:30;13.20;99.90
25128;DHT22;13107;51.304;6.866;2024-03-02T12:09:32;13.30;99.90
25128;DHT22;13107;51.304;6.866;2024-03-02T12:13:34;13.30;99.90
25128;DHT22;13107;51.304;6.866;2024-03-02T12:17:36;13.50;99.90
25128;DHT22;13107;51.304;6.866;2024-03-02T12:21:39;13.80;99.90
25128;DHT22;13107;51.304;6.866;2024-03-02T12:25:41;14.00;99.90
25128;DHT22;13107;51.304;6.866;2024-03-02T12:29:43;14.00;99.90
25128;DHT22;13107;51.304;6.866;2024-03-02T12:33:46;14.00;99.90
25128;DHT22;13107;51.304;6.866;2024-03-02T12:37:49;14.00;99.90
25128;DHT22;13107;51.304;6.866;2024-03-02T12:41:51;14.00;99.90
25128;DHT22;13107;51.304;6.866;2024-03-02T12:45:53;14.00;99.90
25128;DHT22;13107;51.304;6.866;2024-03-02T12:49:58;14.10;99.90
25128;DHT22;13107;51.304;6.866;2024-03-02T12:54:01;14.10;99.90
25128;DHT22;13107;51.304;6.866;2024-03-02T12:58:03;13.90;99.90
25128;DHT22;13107;51.304;6.866;2024-03-02T13:02:05;14.10;99.90
25128;DHT22;13107;51.304;6.866;2024-03-02T13:06:07;14.00;99.90
25128;DHT22;13107;51.304;6.866;2024-03-02T13:10:10;13.80;99.90
25128;DHT22;13107;51.304;6.866;2024-03-02T13:14:12;13.90;99.90
25128;DHT22;13107;51.304;6.866;2024-03-02T13:18:14;13.80;99.90
25128;DHT22;13107;51.304;6.866;2024-03-02T13:22:16;13.80;99.90
25128;DHT22;13107;51.304;6.866;2024-03-02T13:26:17;13.90;99.90
25128;DHT22;13107;51.304;6.866;2024-03-02T13:30:19;13.80;99.90
25128;DHT22;13107;51.304;6.866;2024-03-02T13:34:21;13.50;99.90
25128;DHT22;13107;51.304;6.866;2024-03-02T13:38:23;13.60;99.90
25128;DHT22;13107;51.304;6.866;2024-03-02T13:42:25;13.70;99.90
25128;DHT22;13107;51.304;6.866;2024-03-02T13:46:29;13.80;99.90
25128;DHT22;13107;51.304;6.866;2024-03-02T13:50:31;14.00;99.90
25128;DHT22;13107;51.304;6.866;2024-03-02T13:54:33;14.40;99.90
25128;DHT22;13107;51.304;6.866;2024-03-02T13:58:38;14.80;99.90
25128;DHT22;13107;51.304;6.866;2024-03-02T14:02:40;14.90;99.90
25128;DHT22;13107;51.304;6.866;2024-03-02T14:06:44;14.80;99.90
25128;DHT22;13107;51.304;6.866;2024-03-02T14:10:46;14.60;99.90
25128;DHT22;13107;51.304;6.866;2024-03-02T14:14:48;14.20;99.90
25128;DHT22;13107;51.304;6.866;2024-03-02T14:18:53;14.10;99.90
25128;DHT22;13107;51.304;6.866;2024-03-02T14:22:55;14.10;99.90
25128;DHT22;13107;51.304;6.866;2024-03-02T14:26:57;14.30;99.90
25128;DHT22;13107;51.304;6.866;2024-03-02T14:31:11;14.20;99.90
25128;DHT22;13107;51.304;6.866;2024-03-02T14:35:13;14.20;99.90
25128;DHT22;13107;51.304;6.866;2024-03-02T14:39:15;14.20;99.90
25128;DHT22;13107;51.304;6.866;2024-03-02T14:43:17;14.90;99.90
25128;DHT22;13107;51.304;6.866;2024-03-02T14:47:19;15.50;99.90
25128;DHT22;13107;51.304;6.866;2024-03-02T14:51:21;15.20;99.90
25128;DHT22;13107;51.304;6.866;2024-03-02T14:55:23;15.20;99.90
25128;DHT22;13107;51.304;6.866;2024-03-02T14:59:25;14.90;99.90
25128;DHT22;13107;51.304;6.866;2024-03-02T15:03:27;14.60;99.90
25128;DHT22;13107;51.304;6.866;2024-03-02T15:07:28;14.50;99.90
25128;DHT22;13107;51.304;6.866;2024-03-02T15:11:30;14.50;99.90
25128;DHT22;13107;51.304;6.866;2024-03-02T15:15:32;14.70;99.90
25128;DHT22;13107;51.304;6.866;2024-03-02T15:19:34;14.80;99.90
25128;DHT22;13107;51.304;6.866;2024-03-02T15:23:36;14.70;99.90
25128;DHT22;13107;51.304;6.866;2024-03-02T15:27:38;14.60;99.90
25128;DHT22;13107;51.304;6.866;2024-03-02T15:31:40;14.50;99.90
25128;DHT22;13107;51.304;6.866;2024-03-02T15:35:41;14.30;99.90
25128;DHT22;13107;51.304;6.866;2024-03-02T15:39:43;14.10;99.90
25128;DHT22;13107;51.304;6.866;2024-03-02T15:43:45;14.30;99.90
25128;DHT22;13107;51.304;6.866;2024-03-02T15:47:48;14.20;99.90
25128;DHT22;13107;51.304;6.866;2024-03-02T15:51:50;14.10;99.90
25128;DHT22;13107;51.304;6.866;2024-03-02T15:55:52;13.90;99.90
25128;DHT22;13107;51.304;6.866;2024-03-02T15:59:54;13.70;99.90
25128;DHT22;13107;51.304;6.866;2024-03-02T16:03:56;13.60;99.90
25128;DHT22;13107;51.304;6.866;2024-03-02T16:07:58;13.50;99.90
25128;DHT22;13107;51.304;6.866;2024-03-02T16:12:00;13.50;99.90
25128;DHT22;13107;51.304;6.866;2024-03-02T16:16:02;13.50;99.90
25128;DHT22;13107;51.304;6.866;2024-03-02T16:20:04;13.60;99.90
25128;DHT22;13107;51.304;6.866;2024-03-02T16:24:07;13.40;99.90
25128;DHT22;13107;51.304;6.866;2024-03-02T16:28:09;13.40;99.90
25128;DHT22;13107;51.304;6.866;2024-03-02T16:32:11;13.20;99.90
25128;DHT22;13107;51.304;6.866;2024-03-02T16:36:13;13.10;99.90
25128;DHT22;13107;51.304;6.866;2024-03-02T16:40:15;13.00;99.90
25128;DHT22;13107;51.304;6.866;2024-03-02T16:44:17;13.00;99.90
25128;DHT22;13107;51.304;6.866;2024-03-02T16:48:18;13.00;99.90
25128;DHT22;13107;51.304;6.866;2024-03-02T16:52:20;12.90;99.90
25128;DHT22;13107;51.304;6.866;2024-03-02T16:56:25;12.80;99.90
25128;DHT22;13107;51.304;6.866;2024-03-02T17:00:27;12.70;99.90
25128;DHT22;13107;51.304;6.866;2024-03-02T17:04:29;12.70;99.90
25128;DHT22;13107;51.304;6.866;2024-03-02T17:08:31;12.70;99.90
25128;DHT22;13107;51.304;6.866;2024-03-02T17:12:33;12.60;99.90
25128;DHT22;13107;51.304;6.866;2024-03-02T17:16:35;12.70;99.90
25128;DHT22;13107;51.304;6.866;2024-03-02T17:20:36;12.50;99.90
25128;DHT22;13107;51.304;6.866;2024-03-02T17:24:38;12.50;99.90
25128;DHT22;13107;51.304;6.866;2024-03-02T17:28:40;12.50;99.90
25128;DHT22;13107;51.304;6.866;2024-03-02T17:32:43;12.40;99.90
25128;DHT22;13107;51.304;6.866;2024-03-02T17:36:45;12.40;99.90
25128;DHT22;13107;51.304;6.866;2024-03-02T17:40:47;12.50;99.90
25128;DHT22;13107;51.304;6.866;2024-03-02T17:44:49;12.40;99.90
25128;DHT22;13107;51.304;6.866;2024-03-02T17:48:51;12.50;99.90
25128;DHT22;13107;51.304;6.866;2024-03-02T17:52:53;12.40;99.90
25128;DHT22;13107;51.304;6.866;2024-03-02T17:56:56;12.30;99.90
25128;DHT22;13107;51.304;6.866;2024-03-02T18:00:58;12.30;99.90
25128;DHT22;13107;51.304;6.866;2024-03-02T18:05:01;12.30;99.90
25128;DHT22;13107;51.304;6.866;2024-03-02T18:09:03;12.10;99.90
25128;DHT22;13107;51.304;6.866;2024-03-02T18:13:05;12.10;99.90
25128;DHT22;13107;51.304;6.866;2024-03-02T18:17:07;12.20;99.90
25128;DHT22;13107;51.304;6.866;2024-03-02T18:21:09;12.30;99.90
25128;DHT22;13107;51.304;6.866;2024-03-02T18:25:11;12.20;99.90
25128;DHT22;13107;51.304;6.866;2024-03-02T18:29:13;12.30;99.90
25128;DHT22;13107;51.304;6.866;2024-03-02T18:33:15;12.20;99.90
25128;DHT22;13107;51.304;6.866;2024-03-02T18:37:17;12.10;99.90
25128;DHT22;13107;51.304;6.866;2024-03-02T18:41:23;12.10;99.90
25128;DHT22;13107;51.304;6.866;2024-03-02T18:45:26;12.10;99.90
25128;DHT22;13107;51.304;6.866;2024-03-02T18:49:28;12.10;99.90
25128;DHT22;13107;51.304;6.866;2024-03-02T18:53:30;12.20;99.90
25128;DHT22;13107;51.304;6.866;2024-03-02T18:57:32;12.10;99.90
25128;DHT22;13107;51.304;6.866;2024-03-02T19:01:34;12.00;99.90
25128;DHT22;13107;51.304;6.866;2024-03-02T19:05:36;12.10;99.90
25128;DHT22;13107;51.304;6.866;2024-03-02T19:09:37;12.20;99.90
25128;DHT22;13107;51.304;6.866;2024-03-02T19:13:40;12.00;99.90
25128;DHT22;13107;51.304;6.866;2024-03-02T19:17:42;12.00;99.90
25128;DHT22;13107;51.304;6.866;2024-03-02T19:21:44;12.10;99.90
25128;DHT22;13107;51.304;6.866;2024-03-02T19:25:54;12.00;99.90
25128;DHT22;13107;51.304;6.866;2024-03-02T19:29:56;12.10;99.90
25128;DHT22;13107;51.304;6.866;2024-03-02T19:33:57;12.10;99.90
25128;DHT22;13107;51.304;6.866;2024-03-02T19:38:00;12.00;99.90
25128;DHT22;13107;51.304;6.866;2024-03-02T19:42:01;11.90;99.90
25128;DHT22;13107;51.304;6.866;2024-03-02T19:46:04;11.90;99.90
25128;DHT22;13107;51.304;6.866;2024-03-02T19:50:07;11.90;99.90
25128;DHT22;13107;51.304;6.866;2024-03-02T19:54:14;11.90;99.90
25128;DHT22;13107;51.304;6.866;2024-03-02T19:58:15;11.90;99.90
25128;DHT22;13107;51.304;6.866;2024-03-02T20:02:18;11.80;99.90
25128;DHT22;13107;51.304;6.866;2024-03-02T20:06:22;11.80;99.90
25128;DHT22;13107;51.304;6.866;2024-03-02T20:10:24;11.70;99.90
25128;DHT22;13107;51.304;6.866;2024-03-02T20:14:26;11.70;99.90
25128;DHT22;13107;51.304;6.866;2024-03-02T20:18:27;11.70;99.90
25128;DHT22;13107;51.304;6.866;2024-03-02T20:22:29;11.80;99.90
25128;DHT22;13107;51.304;6.866;2024-03-02T20:26:31;11.70;99.90
25128;DHT22;13107;51.304;6.866;2024-03-02T20:30:33;11.70;99.90
25128;DHT22;13107;51.304;6.866;2024-03-02T20:34:35;11.60;99.90
25128;DHT22;13107;51.304;6.866;2024-03-02T20:38:38;11.60;99.90
25128;DHT22;13107;51.304;6.866;2024-03-02T20:42:40;11.60;99.90
25128;DHT22;13107;51.304;6.866;2024-03-02T20:46:42;11.60;99.90
25128;DHT22;13107;51.304;6.866;2024-03-02T20:50:44;11.70;99.90
25128;DHT22;13107;51.304;6.866;2024-03-02T20:54:49;11.60;99.90
25128;DHT22;13107;51.304;6.866;2024-03-02T20:58:51;11.50;99.90
25128;DHT22;13107;51.304;6.866;2024-03-02T21:02:53;11.30;99.90
25128;DHT22;13107;51.304;6.866;2024-03-02T21:06:55;11.30;99.90
25128;DHT22;13107;51.304;6.866;2024-03-02T21:10:57;11.20;99.90
25128;DHT22;13107;51.304;6.866;2024-03-02T21:14:59;11.20;99.90
25128;DHT22;13107;51.304;6.866;2024-03-02T21:19:01;11.30;99.90
25128;DHT22;13107;51.304;6.866;2024-03-02T21:23:03;11.30;99.90
25128;DHT22;13107;51.304;6.866;2024-03-02T21:27:05;11.40;99.90
25128;DHT22;13107;51.304;6.866;2024-03-02T21:31:16;11.40;99.90
25128;DHT22;13107;51.304;6.866;2024-03-02T21:35:18;11.40;99.90
25128;DHT22;13107;51.304;6.866;2024-03-02T21:39:21;11.40;99.90
25128;DHT22;13107;51.304;6.866;2024-03-02T21:43:39;11.40;99.90
25128;DHT22;13107;51.304;6.866;2024-03-02T21:47:43;11.30;99.90
25128;DHT22;13107;51.304;6.866;2024-03-02T21:51:45;11.30;99.90
25128;DHT22;13107;51.304;6.866;2024-03-02T21:55:47;11.20;99.90
25128;DHT22;13107;51.304;6.866;2024-03-02T21:59:49;11.10;99.90
25128;DHT22;13107;51.304;6.866;2024-03-02T22:03:51;11.20;99.90
25128;DHT22;13107;51.304;6.866;2024-03-02T22:07:53;11.00;99.90
25128;DHT22;13107;51.304;6.866;2024-03-02T22:11:56;11.00;99.90
25128;DHT22;13107;51.304;6.866;2024-03-02T22:15:58;10.90;99.90
25128;DHT22;13107;51.304;6.866;2024-03-02T22:19:59;10.80;99.90
25128;DHT22;13107;51.304;6.866;2024-03-02T22:24:01;10.80;99.90
25128;DHT22;13107;51.304;6.866;2024-03-02T22:28:03;10.80;99.90
25128;DHT22;13107;51.304;6.866;2024-03-02T22:32:06;10.80;99.90
25128;DHT22;13107;51.304;6.866;2024-03-02T22:36:07;10.80;99.90
25128;DHT22;13107;51.304;6.866;2024-03-02T22:40:10;10.80;99.90
25128;DHT22;13107;51.304;6.866;2024-03-02T22:44:12;10.80;99.90
25128;DHT22;13107;51.304;6.866;2024-03-02T22:48:14;10.80;99.90
25128;DHT22;13107;51.304;6.866;2024-03-02T22:52:16;10.90;99.90
25128;DHT22;13107;51.304;6.866;2024-03-02T22:56:18;10.90;99.90
25128;DHT22;13107;51.304;6.866;2024-03-02T23:00:20;10.90;99.90
25128;DHT22;13107;51.304;6.866;2024-03-02T23:04:38;10.70;99.90
25128;DHT22;13107;51.304;6.866;2024-03-02T23:08:39;10.70;99.90
25128;DHT22;13107;51.304;6.866;2024-03-02T23:12:41;10.60;99.90
25128;DHT22;13107;51.304;6.866;2024-03-02T23:16:44;10.80;99.90
25128;DHT22;13107;51.304;6.866;2024-03-02T23:20:47;10.80;99.90
25128;DHT22;13107;51.304;6.866;2024-03-02T23:24:49;10.80;99.90
25128;DHT22;13107;51.304;6.866;2024-03-02T23:28:50;10.70;99.90
25128;DHT22;13107;51.304;6.866;2024-03-02T23:32:52;10.60;99.90
25128;DHT22;13107;51.304;6.866;2024-03-02T23:36:54;10.50;99.90
25128;DHT22;13107;51.304;6.866;2024-03-02T23:40:57;10.50;99.90
25128;DHT22;13107;51.304;6.866;2024-03-02T23:45:11;10.60;99.90
25128;DHT22;13107;51.304;6.866;2024-03-02T23:49:12;10.50;99.90
25128;DHT22;13107;51.304;6.866;2024-03-02T23:53:14;10.60;99.90
25128;DHT22;13107;51.304;6.866;2024-03-02T23:57:16;10.50;99.90
